sensor_id;sensor_type;location;lat;lon;timestamp;pressure;altitude;pressure_sealevel;temperature;humidity
9141;BME280;46330;50.822;7.126;2023-05-03T00:02:25;102104.41;;;5.57;88.59
9141;BME280;46330;50.822;7.126;2023-05-03T00:04:53;102093.84;;;5.51;88.85
9141;BME280;46330;50.822;7.126;2023-05-03T00:07:21;102095.59;;;5.51;88.61
9141;BME280;46330;50.822;7.126;2023-05-03T00:09:49;102097.25;;;5.49;89.21
9141;BME280;46330;50.822;7.126;2023-05-03T00:12:17;102091.97;;;5.44;88.74
9141;BME280;46330;50.822;7.126;2023-05-03T00:14:45;102091.81;;;5.38;88.48
9141;BME280;46330;50.822;7.126;2023-05-03T00:17:14;102090.94;;;5.37;89.00
9141;BME280;46330;50.822;7.126;2023-05-03T00:19:43;102085.72;;;5.37;88.52
9141;BME280;46330;50.822;7.126;2023-05-03T00:22:10;102082.94;;;5.30;88.55
9141;BME280;46330;50.822;7.126;2023-05-03T00:24:38;102078.63;;;5.30;89.76
9141;BME280;46330;50.822;7.126;2023-05-03T00:27:06;102075.13;;;5.28;88.50
9141;BME280;46330;50.822;7.126;2023-05-03T00:29:34;102072.94;;;5.11;89.40
9141;BME280;46330;50.822;7.126;2023-05-03T00:32:03;102075.19;;;4.99;91.36
9141;BME280;46330;50.822;7.126;2023-05-03T00:34:32;102082.28;;;5.04;91.36
9141;BME280;46330;50.822;7.126;2023-05-03T00:37:00;102081.34;;;5.02;91.40
9141;BME280;46330;50.822;7.126;2023-05-03T00:39:28;102078.66;;;4.98;92.09
9141;BME280;46330;50.822;7.126;2023-05-03T00:41:57;102081.16;;;4.95;90.77
9141;BME280;46330;50.822;7.126;2023-05-03T00:44:25;102075.94;;;4.93;91.71
9141;BME280;46330;50.822;7.126;2023-05-03T00:46:54;102082.00;;;4.95;91.65
9141;BME280;46330;50.822;7.126;2023-05-03T00:49:23;102076.66;;;4.89;90.69
9141;BME280;46330;50.822;7.126;2023-05-03T00:51:53;102082.00;;;4.94;91.16
9141;BME280;46330;50.822;7.126;2023-05-03T00:54:22;102088.88;;;4.92;90.91
9141;BME280;46330;50.822;7.126;2023-05-03T00:56:50;102077.63;;;4.93;91.06
9141;BME280;46330;50.822;7.126;2023-05-03T00:59:19;102086.28;;;4.93;91.11
9141;BME280;46330;50.822;7.126;2023-05-03T01:01:48;102093.03;;;4.86;91.94
9141;BME280;46330;50.822;7.126;2023-05-03T01:04:17;102086.75;;;4.78;92.36
9141;BME280;46330;50.822;7.126;2023-05-03T01:06:54;102084.97;;;4.76;92.19
9141;BME280;46330;50.822;7.126;2023-05-03T01:09:31;102081.41;;;4.72;92.54
9141;BME280;46330;50.822;7.126;2023-05-03T01:12:13;102090.75;;;4.67;92.95
9141;BME280;46330;50.822;7.126;2023-05-03T01:14:50;102095.00;;;4.64;92.73
9141;BME280;46330;50.822;7.126;2023-05-03T01:17:26;102089.69;;;4.59;92.74
9141;BME280;46330;50.822;7.126;2023-05-03T01:19:59;102085.16;;;4.52;93.02
9141;BME280;46330;50.822;7.126;2023-05-03T01:22:41;102090.03;;;4.42;92.61
9141;BME280;46330;50.822;7.126;2023-05-03T01:25:14;102085.50;;;4.34;93.35
9141;BME280;46330;50.822;7.126;2023-05-03T01:27:42;102091.56;;;4.35;94.65
9141;BME280;46330;50.822;7.126;2023-05-03T01:30:11;102086.34;;;4.33;94.20
9141;BME280;46330;50.822;7.126;2023-05-03T01:32:49;102088.03;;;4.33;94.45
9141;BME280;46330;50.822;7.126;2023-05-03T01:35:25;102093.19;;;4.31;94.30
9141;BME280;46330;50.822;7.126;2023-05-03T01:37:56;102086.25;;;4.30;94.39
9141;BME280;46330;50.822;7.126;2023-05-03T01:40:26;102087.84;;;4.27;94.58
9141;BME280;46330;50.822;7.126;2023-05-03T01:42:55;102090.34;;;4.24;94.99
9141;BME280;46330;50.822;7.126;2023-05-03T01:45:24;102091.31;;;4.26;95.05
9141;BME280;46330;50.822;7.126;2023-05-03T01:47:55;102091.34;;;4.27;95.13
9141;BME280;46330;50.822;7.126;2023-05-03T01:50:23;102093.91;;;4.27;94.50
9141;BME280;46330;50.822;7.126;2023-05-03T01:52:51;102093.91;;;4.26;94.88
9141;BME280;46330;50.822;7.126;2023-05-03T01:55:19;102088.63;;;4.23;95.16
9141;BME280;46330;50.822;7.126;2023-05-03T01:57:48;102092.66;;;4.13;95.59
9141;BME280;46330;50.822;7.126;2023-05-03T02:00:17;102096.97;;;4.14;95.84
9141;BME280;46330;50.822;7.126;2023-05-03T02:02:45;102096.25;;;4.18;95.69
9141;BME280;46330;50.822;7.126;2023-05-03T02:05:13;102110.97;;;4.19;95.87
9141;BME280;46330;50.822;7.126;2023-05-03T02:07:41;102105.72;;;4.18;95.01
9141;BME280;46330;50.822;7.126;2023-05-03T02:10:09;102115.06;;;4.13;95.33
9141;BME280;46330;50.822;7.126;2023-05-03T02:12:40;102112.28;;;4.07;95.66
9141;BME280;46330;50.822;7.126;2023-05-03T02:15:10;102108.66;;;4.02;96.07
9141;BME280;46330;50.822;7.126;2023-05-03T02:17:41;102107.72;;;3.98;95.65
9141;BME280;46330;50.822;7.126;2023-05-03T02:20:11;102114.53;;;3.96;94.79
9141;BME280;46330;50.822;7.126;2023-05-03T02:22:39;102108.28;;;3.90;95.46
9141;BME280;46330;50.822;7.126;2023-05-03T02:25:08;102119.59;;;3.92;95.39
9141;BME280;46330;50.822;7.126;2023-05-03T02:27:36;102121.00;;;3.82;96.45
9141;BME280;46330;50.822;7.126;2023-05-03T02:30:05;102116.72;;;3.83;96.31
9141;BME280;46330;50.822;7.126;2023-05-03T02:32:40;102117.44;;;3.78;96.46
9141;BME280;46330;50.822;7.126;2023-05-03T02:35:09;102122.50;;;3.75;96.66
9141;BME280;46330;50.822;7.126;2023-05-03T02:37:37;102120.72;;;3.73;97.15
9141;BME280;46330;50.822;7.126;2023-05-03T02:40:10;102124.03;;;3.69;97.21
9141;BME280;46330;50.822;7.126;2023-05-03T02:42:39;102137.22;;;3.76;97.27
9141;BME280;46330;50.822;7.126;2023-05-03T02:45:08;102134.81;;;3.83;97.64
9141;BME280;46330;50.822;7.126;2023-05-03T02:47:36;102134.94;;;3.87;96.92
9141;BME280;46330;50.822;7.126;2023-05-03T02:50:06;102133.06;;;3.82;96.92
9141;BME280;46330;50.822;7.126;2023-05-03T02:52:38;102126.91;;;3.78;97.26
9141;BME280;46330;50.822;7.126;2023-05-03T02:55:07;102126.97;;;3.79;96.96
9141;BME280;46330;50.822;7.126;2023-05-03T02:57:37;102131.00;;;3.71;96.84
9141;BME280;46330;50.822;7.126;2023-05-03T03:00:10;102130.19;;;3.72;96.56
9141;BME280;46330;50.822;7.126;2023-05-03T03:02:41;102130.81;;;3.65;96.38
9141;BME280;46330;50.822;7.126;2023-05-03T03:05:11;102125.50;;;3.61;96.88
9141;BME280;46330;50.822;7.126;2023-05-03T03:07:44;102122.72;;;3.55;96.81
9141;BME280;46330;50.822;7.126;2023-05-03T03:10:12;102127.88;;;3.55;97.24
9141;BME280;46330;50.822;7.126;2023-05-03T03:12:40;102122.75;;;3.56;96.93
9141;BME280;46330;50.822;7.126;2023-05-03T03:15:15;102121.63;;;3.48;95.87
9141;BME280;46330;50.822;7.126;2023-05-03T03:17:44;102120.63;;;3.45;97.29
9141;BME280;46330;50.822;7.126;2023-05-03T03:20:13;102116.19;;;3.41;97.46
9141;BME280;46330;50.822;7.126;2023-05-03T03:22:45;102124.75;;;3.40;97.64
9141;BME280;46330;50.822;7.126;2023-05-03T03:25:13;102128.00;;;3.33;97.65
9141;BME280;46330;50.822;7.126;2023-05-03T03:27:41;102116.66;;;3.29;97.65
9141;BME280;46330;50.822;7.126;2023-05-03T03:30:09;102110.50;;;3.25;97.85
9141;BME280;46330;50.822;7.126;2023-05-03T03:32:48;102110.50;;;3.25;98.26
9141;BME280;46330;50.822;7.126;2023-05-03T03:35:26;102112.19;;;3.25;97.81
9141;BME280;46330;50.822;7.126;2023-05-03T03:37:54;102115.59;;;3.24;97.90
9141;BME280;46330;50.822;7.126;2023-05-03T03:40:23;102114.53;;;3.17;98.08
9141;BME280;46330;50.822;7.126;2023-05-03T03:42:54;102116.84;;;3.10;98.39
9141;BME280;46330;50.822;7.126;2023-05-03T03:45:22;102100.31;;;3.05;98.57
9141;BME280;46330;50.822;7.126;2023-05-03T03:47:50;102105.50;;;3.05;98.65
9141;BME280;46330;50.822;7.126;2023-05-03T03:50:21;102108.06;;;3.05;99.19
9141;BME280;46330;50.822;7.126;2023-05-03T03:52:51;102113.88;;;2.99;99.27
9141;BME280;46330;50.822;7.126;2023-05-03T03:55:20;102101.75;;;2.97;99.37
9141;BME280;46330;50.822;7.126;2023-05-03T03:57:51;102104.22;;;2.94;99.30
9141;BME280;46330;50.822;7.126;2023-05-03T04:00:21;102099.06;;;2.94;99.00
9141;BME280;46330;50.822;7.126;2023-05-03T04:02:57;102097.25;;;2.91;99.47
9141;BME280;46330;50.822;7.126;2023-05-03T04:05:25;102093.88;;;2.94;98.88
9141;BME280;46330;50.822;7.126;2023-05-03T04:07:55;102097.34;;;2.94;99.66
9141;BME280;46330;50.822;7.126;2023-05-03T04:10:25;102098.91;;;2.89;99.99
9141;BME280;46330;50.822;7.126;2023-05-03T04:12:53;102098.03;;;2.89;100.00
9141;BME280;46330;50.822;7.126;2023-05-03T04:15:21;102083.19;;;2.83;99.75
9141;BME280;46330;50.822;7.126;2023-05-03T04:17:51;102097.72;;;2.81;100.00
9141;BME280;46330;50.822;7.126;2023-05-03T04:20:53;102096.63;;;2.75;100.00
9141;BME280;46330;50.822;7.126;2023-05-03T04:23:23;102099.50;;;2.82;100.00
9141;BME280;46330;50.822;7.126;2023-05-03T04:25:51;102102.22;;;2.87;100.00
9141;BME280;46330;50.822;7.126;2023-05-03T04:28:20;102089.38;;;2.88;100.00
9141;BME280;46330;50.822;7.126;2023-05-03T04:30:49;102088.72;;;2.94;100.00
9141;BME280;46330;50.822;7.126;2023-05-03T04:33:22;102080.66;;;2.85;100.00
9141;BME280;46330;50.822;7.126;2023-05-03T04:35:52;102089.50;;;2.91;100.00
9141;BME280;46330;50.822;7.126;2023-05-03T04:38:20;102088.09;;;3.01;100.00
9141;BME280;46330;50.822;7.126;2023-05-03T04:40:50;102087.19;;;2.99;100.00
9141;BME280;46330;50.822;7.126;2023-05-03T04:43:18;102083.81;;;3.01;99.83
9141;BME280;46330;50.822;7.126;2023-05-03T04:45:47;102080.56;;;3.07;99.65
9141;BME280;46330;50.822;7.126;2023-05-03T04:48:20;102083.34;;;3.13;99.77
9141;BME280;46330;50.822;7.126;2023-05-03T04:50:48;102088.13;;;3.26;99.28
9141;BME280;46330;50.822;7.126;2023-05-03T04:53:18;102094.69;;;3.42;97.95
9141;BME280;46330;50.822;7.126;2023-05-03T04:56:08;102105.25;;;3.49;97.05
9141;BME280;46330;50.822;7.126;2023-05-03T04:58:38;102112.59;;;3.62;96.39
9141;BME280;46330;50.822;7.126;2023-05-03T05:01:06;102104.13;;;3.68;95.64
9141;BME280;46330;50.822;7.126;2023-05-03T05:03:34;102115.72;;;3.79;95.00
9141;BME280;46330;50.822;7.126;2023-05-03T05:06:08;102110.31;;;3.98;93.99
9141;BME280;46330;50.822;7.126;2023-05-03T05:08:39;102123.72;;;4.13;92.83
9141;BME280;46330;50.822;7.126;2023-05-03T05:11:11;102129.75;;;4.42;91.55
9141;BME280;46330;50.822;7.126;2023-05-03T05:13:40;102126.47;;;4.77;90.09
9141;BME280;46330;50.822;7.126;2023-05-03T05:16:08;102125.31;;;4.98;88.13
9141;BME280;46330;50.822;7.126;2023-05-03T05:18:40;102125.88;;;5.19;86.66
9141;BME280;46330;50.822;7.126;2023-05-03T05:21:09;102125.53;;;5.38;85.23
9141;BME280;46330;50.822;7.126;2023-05-03T05:23:38;102122.06;;;5.37;84.36
9141;BME280;46330;50.822;7.126;2023-05-03T05:26:06;102128.59;;;5.56;84.31
9141;BME280;46330;50.822;7.126;2023-05-03T05:28:36;102132.69;;;5.48;84.39
9141;BME280;46330;50.822;7.126;2023-05-03T05:31:04;102128.53;;;5.87;83.38
9141;BME280;46330;50.822;7.126;2023-05-03T05:33:34;102135.84;;;6.04;81.77
9141;BME280;46330;50.822;7.126;2023-05-03T05:36:03;102134.53;;;6.22;80.74
9141;BME280;46330;50.822;7.126;2023-05-03T05:38:33;102135.91;;;6.45;79.99
9141;BME280;46330;50.822;7.126;2023-05-03T05:41:01;102138.28;;;6.75;77.56
9141;BME280;46330;50.822;7.126;2023-05-03T05:43:32;102142.09;;;6.52;78.03
9141;BME280;46330;50.822;7.126;2023-05-03T05:46:01;102143.91;;;6.98;76.88
9141;BME280;46330;50.822;7.126;2023-05-03T05:48:29;102151.34;;;7.23;74.86
9141;BME280;46330;50.822;7.126;2023-05-03T05:50:58;102152.06;;;7.63;72.99
9141;BME280;46330;50.822;7.126;2023-05-03T05:53:26;102148.38;;;7.50;73.14
9141;BME280;46330;50.822;7.126;2023-05-03T05:55:58;102157.59;;;7.82;71.37
9141;BME280;46330;50.822;7.126;2023-05-03T05:58:29;102169.53;;;8.24;70.33
9141;BME280;46330;50.822;7.126;2023-05-03T06:00:58;102165.03;;;8.13;70.10
9141;BME280;46330;50.822;7.126;2023-05-03T06:03:30;102169.03;;;8.46;67.07
9141;BME280;46330;50.822;7.126;2023-05-03T06:06:00;102162.94;;;9.14;67.17
9141;BME280;46330;50.822;7.126;2023-05-03T06:08:28;102173.25;;;9.02;65.89
9141;BME280;46330;50.822;7.126;2023-05-03T06:10:56;102168.66;;;8.83;65.82
9141;BME280;46330;50.822;7.126;2023-05-03T06:13:26;102166.97;;;9.69;63.92
9141;BME280;46330;50.822;7.126;2023-05-03T06:15:55;102166.06;;;9.66;61.47
9141;BME280;46330;50.822;7.126;2023-05-03T06:18:23;102155.81;;;9.93;60.55
9141;BME280;46330;50.822;7.126;2023-05-03T06:20:53;102160.41;;;10.17;60.40
9141;BME280;46330;50.822;7.126;2023-05-03T06:23:22;102154.34;;;10.25;59.97
9141;BME280;46330;50.822;7.126;2023-05-03T06:25:51;102160.69;;;10.67;59.93
9141;BME280;46330;50.822;7.126;2023-05-03T06:28:21;102160.06;;;11.41;58.74
9141;BME280;46330;50.822;7.126;2023-05-03T06:30:52;102159.22;;;12.13;54.84
9141;BME280;46330;50.822;7.126;2023-05-03T06:33:21;102164.47;;;12.20;52.74
9141;BME280;46330;50.822;7.126;2023-05-03T06:35:50;102159.16;;;12.51;52.03
9141;BME280;46330;50.822;7.126;2023-05-03T06:38:20;102161.66;;;12.85;50.66
9141;BME280;46330;50.822;7.126;2023-05-03T06:40:48;102170.44;;;12.81;52.11
9141;BME280;46330;50.822;7.126;2023-05-03T06:43:16;102173.69;;;13.33;49.25
9141;BME280;46330;50.822;7.126;2023-05-03T06:45:55;102166.41;;;13.75;47.84
9141;BME280;46330;50.822;7.126;2023-05-03T06:48:23;102172.63;;;13.63;47.84
9141;BME280;46330;50.822;7.126;2023-05-03T06:50:51;102175.44;;;13.37;48.40
9141;BME280;46330;50.822;7.126;2023-05-03T06:53:20;102168.47;;;14.40;47.01
9141;BME280;46330;50.822;7.126;2023-05-03T06:55:48;102166.44;;;13.67;47.12
9141;BME280;46330;50.822;7.126;2023-05-03T06:58:16;102172.72;;;14.51;45.76
9141;BME280;46330;50.822;7.126;2023-05-03T07:00:44;102176.16;;;14.58;45.93
9141;BME280;46330;50.822;7.126;2023-05-03T07:03:13;102165.78;;;15.15;43.86
9141;BME280;46330;50.822;7.126;2023-05-03T07:05:41;102173.09;;;15.57;42.83
9141;BME280;46330;50.822;7.126;2023-05-03T07:08:09;102164.94;;;15.74;43.23
9141;BME280;46330;50.822;7.126;2023-05-03T07:10:38;102156.19;;;15.72;42.16
9141;BME280;46330;50.822;7.126;2023-05-03T07:13:07;102156.00;;;15.84;42.41
9141;BME280;46330;50.822;7.126;2023-05-03T07:15:35;102158.72;;;15.18;43.05
9141;BME280;46330;50.822;7.126;2023-05-03T07:18:03;102154.88;;;15.40;42.14
9141;BME280;46330;50.822;7.126;2023-05-03T07:20:31;102151.03;;;16.14;40.82
9141;BME280;46330;50.822;7.126;2023-05-03T07:22:59;102154.22;;;16.33;39.73
9141;BME280;46330;50.822;7.126;2023-05-03T07:25:27;102156.13;;;15.15;42.07
9141;BME280;46330;50.822;7.126;2023-05-03T07:27:56;102151.66;;;15.22;42.37
9141;BME280;46330;50.822;7.126;2023-05-03T07:30:24;102156.38;;;14.18;44.49
9141;BME280;46330;50.822;7.126;2023-05-03T07:32:52;102151.69;;;15.19;43.63
9141;BME280;46330;50.822;7.126;2023-05-03T07:35:20;102149.66;;;15.36;42.15
9141;BME280;46330;50.822;7.126;2023-05-03T07:37:48;102143.38;;;15.47;42.58
9141;BME280;46330;50.822;7.126;2023-05-03T07:40:16;102142.34;;;16.09;40.83
9141;BME280;46330;50.822;7.126;2023-05-03T07:42:44;102136.75;;;16.26;39.67
9141;BME280;46330;50.822;7.126;2023-05-03T07:45:14;102139.09;;;15.94;40.50
9141;BME280;46330;50.822;7.126;2023-05-03T07:47:42;102134.78;;;16.37;39.42
9141;BME280;46330;50.822;7.126;2023-05-03T07:50:10;102124.47;;;16.24;39.13
9141;BME280;46330;50.822;7.126;2023-05-03T07:52:38;102120.03;;;15.78;40.15
9141;BME280;46330;50.822;7.126;2023-05-03T07:55:09;102125.16;;;15.86;39.36
9141;BME280;46330;50.822;7.126;2023-05-03T07:57:37;102111.91;;;16.36;38.48
9141;BME280;46330;50.822;7.126;2023-05-03T08:00:06;102107.84;;;16.63;37.74
9141;BME280;46330;50.822;7.126;2023-05-03T08:02:40;102115.94;;;16.54;37.16
9141;BME280;46330;50.822;7.126;2023-05-03T08:05:10;102108.88;;;16.57;38.22
9141;BME280;46330;50.822;7.126;2023-05-03T08:07:40;102106.31;;;17.31;37.95
9141;BME280;46330;50.822;7.126;2023-05-03T08:10:09;102106.38;;;17.30;36.56
9141;BME280;46330;50.822;7.126;2023-05-03T08:12:37;102106.16;;;17.00;37.32
9141;BME280;46330;50.822;7.126;2023-05-03T08:15:06;102098.09;;;16.68;35.93
9141;BME280;46330;50.822;7.126;2023-05-03T08:17:41;102089.47;;;17.72;35.14
9141;BME280;46330;50.822;7.126;2023-05-03T08:20:10;102094.13;;;18.28;33.95
9141;BME280;46330;50.822;7.126;2023-05-03T08:22:38;102094.00;;;18.02;34.81
9141;BME280;46330;50.822;7.126;2023-05-03T08:25:07;102094.94;;;17.66;34.11
9141;BME280;46330;50.822;7.126;2023-05-03T08:27:35;102101.63;;;17.07;35.24
9141;BME280;46330;50.822;7.126;2023-05-03T08:30:05;102104.78;;;17.95;33.81
9141;BME280;46330;50.822;7.126;2023-05-03T08:32:34;102101.72;;;18.41;33.16
9141;BME280;46330;50.822;7.126;2023-05-03T08:35:03;102109.13;;;18.91;32.49
9141;BME280;46330;50.822;7.126;2023-05-03T08:37:39;102115.38;;;16.84;35.21
9141;BME280;46330;50.822;7.126;2023-05-03T08:40:08;102103.00;;;17.95;35.01
9141;BME280;46330;50.822;7.126;2023-05-03T08:42:38;102103.03;;;17.94;33.97
9141;BME280;46330;50.822;7.126;2023-05-03T08:45:09;102097.19;;;18.15;33.77
9141;BME280;46330;50.822;7.126;2023-05-03T08:47:37;102087.63;;;19.56;32.75
9141;BME280;46330;50.822;7.126;2023-05-03T08:50:10;102099.63;;;18.53;33.32
9141;BME280;46330;50.822;7.126;2023-05-03T08:52:39;102089.75;;;19.45;31.44
9141;BME280;46330;50.822;7.126;2023-05-03T08:55:08;102089.22;;;19.61;32.34
9141;BME280;46330;50.822;7.126;2023-05-03T08:57:37;102089.94;;;17.15;34.11
9141;BME280;46330;50.822;7.126;2023-05-03T09:00:06;102077.84;;;18.73;33.76
9141;BME280;46330;50.822;7.126;2023-05-03T09:02:36;102083.41;;;18.93;32.95
9141;BME280;46330;50.822;7.126;2023-05-03T09:05:31;102096.22;;;18.48;32.56
9141;BME280;46330;50.822;7.126;2023-05-03T09:08:01;102084.56;;;17.92;33.75
9141;BME280;46330;50.822;7.126;2023-05-03T09:10:30;102085.50;;;17.56;35.05
9141;BME280;46330;50.822;7.126;2023-05-03T09:12:58;102080.94;;;16.86;35.06
9141;BME280;46330;50.822;7.126;2023-05-03T09:15:26;102069.88;;;19.30;33.03
9141;BME280;46330;50.822;7.126;2023-05-03T09:18:14;102071.22;;;19.43;31.36
9141;BME280;46330;50.822;7.126;2023-05-03T09:20:45;102076.81;;;19.06;31.72
9141;BME280;46330;50.822;7.126;2023-05-03T09:23:28;102075.88;;;19.89;31.50
9141;BME280;46330;50.822;7.126;2023-05-03T09:25:57;102070.00;;;19.25;31.35
9141;BME280;46330;50.822;7.126;2023-05-03T09:28:25;102074.41;;;18.71;33.33
9141;BME280;46330;50.822;7.126;2023-05-03T09:31:03;102057.94;;;21.12;29.27
9141;BME280;46330;50.822;7.126;2023-05-03T09:33:32;102061.13;;;21.21;29.50
9141;BME280;46330;50.822;7.126;2023-05-03T09:36:03;102063.53;;;21.27;30.44
9141;BME280;46330;50.822;7.126;2023-05-03T09:38:33;102074.47;;;19.77;31.40
9141;BME280;46330;50.822;7.126;2023-05-03T09:41:02;102072.94;;;18.59;32.39
9141;BME280;46330;50.822;7.126;2023-05-03T09:43:31;102064.13;;;19.44;30.33
9141;BME280;46330;50.822;7.126;2023-05-03T09:46:07;102075.34;;;18.68;32.67
9141;BME280;46330;50.822;7.126;2023-05-03T09:48:36;102064.63;;;18.41;33.27
9141;BME280;46330;50.822;7.126;2023-05-03T09:51:06;102060.00;;;19.33;30.73
9141;BME280;46330;50.822;7.126;2023-05-03T09:53:36;102051.94;;;19.64;31.52
9141;BME280;46330;50.822;7.126;2023-05-03T09:56:06;102053.00;;;21.24;29.22
9141;BME280;46330;50.822;7.126;2023-05-03T09:58:35;102046.31;;;19.98;29.86
9141;BME280;46330;50.822;7.126;2023-05-03T10:01:04;102045.16;;;19.02;30.83
9141;BME280;46330;50.822;7.126;2023-05-03T10:03:38;102038.38;;;19.19;31.33
9141;BME280;46330;50.822;7.126;2023-05-03T10:06:18;102030.84;;;21.24;28.78
9141;BME280;46330;50.822;7.126;2023-05-03T10:08:52;102029.94;;;20.35;28.93
9141;BME280;46330;50.822;7.126;2023-05-03T10:11:22;102038.47;;;20.66;28.47
9141;BME280;46330;50.822;7.126;2023-05-03T10:13:52;102039.66;;;21.26;28.53
9141;BME280;46330;50.822;7.126;2023-05-03T10:16:26;102035.78;;;21.11;27.45
9141;BME280;46330;50.822;7.126;2023-05-03T10:19:05;102032.78;;;20.75;28.86
9141;BME280;46330;50.822;7.126;2023-05-03T10:21:50;102019.38;;;21.84;28.04
9141;BME280;46330;50.822;7.126;2023-05-03T10:24:20;102035.31;;;22.26;27.77
9141;BME280;46330;50.822;7.126;2023-05-03T10:26:49;102024.78;;;22.41;26.77
9141;BME280;46330;50.822;7.126;2023-05-03T10:29:45;102022.53;;;22.51;26.96
9141;BME280;46330;50.822;7.126;2023-05-03T10:32:34;102011.53;;;21.81;26.85
9141;BME280;46330;50.822;7.126;2023-05-03T10:35:07;101998.28;;;22.76;27.30
9141;BME280;46330;50.822;7.126;2023-05-03T10:37:39;101999.75;;;23.00;26.46
9141;BME280;46330;50.822;7.126;2023-05-03T10:40:09;101999.34;;;20.23;27.84
9141;BME280;46330;50.822;7.126;2023-05-03T10:42:38;102000.19;;;21.56;28.45
9141;BME280;46330;50.822;7.126;2023-05-03T10:45:07;101995.41;;;21.23;28.77
9141;BME280;46330;50.822;7.126;2023-05-03T10:47:38;101995.34;;;23.35;26.01
9141;BME280;46330;50.822;7.126;2023-05-03T10:50:25;101993.00;;;21.58;27.37
9141;BME280;46330;50.822;7.126;2023-05-03T10:52:55;101999.41;;;21.12;28.30
9141;BME280;46330;50.822;7.126;2023-05-03T10:55:23;101989.50;;;21.57;29.18
9141;BME280;46330;50.822;7.126;2023-05-03T10:57:55;101991.44;;;21.94;26.96
9141;BME280;46330;50.822;7.126;2023-05-03T11:00:30;101983.97;;;22.21;26.19
9141;BME280;46330;50.822;7.126;2023-05-03T11:03:23;101987.16;;;21.29;26.79
9141;BME280;46330;50.822;7.126;2023-05-03T11:05:54;101988.41;;;21.61;27.89
9141;BME280;46330;50.822;7.126;2023-05-03T11:08:24;101972.38;;;22.22;27.23
9141;BME280;46330;50.822;7.126;2023-05-03T11:10:57;101971.97;;;21.72;27.40
9141;BME280;46330;50.822;7.126;2023-05-03T11:13:26;101975.31;;;20.93;27.75
9141;BME280;46330;50.822;7.126;2023-05-03T11:15:54;101973.53;;;22.54;26.49
9141;BME280;46330;50.822;7.126;2023-05-03T11:18:25;101984.25;;;22.89;26.92
9141;BME280;46330;50.822;7.126;2023-05-03T11:20:53;101968.09;;;24.13;24.62
9141;BME280;46330;50.822;7.126;2023-05-03T11:23:25;101965.72;;;22.86;28.21
9141;BME280;46330;50.822;7.126;2023-05-03T11:25:53;101959.00;;;22.96;28.17
9141;BME280;46330;50.822;7.126;2023-05-03T11:28:23;101966.50;;;24.08;25.19
9141;BME280;46330;50.822;7.126;2023-05-03T11:30:51;101965.97;;;23.69;25.85
9141;BME280;46330;50.822;7.126;2023-05-03T11:33:19;101960.16;;;23.61;25.43
9141;BME280;46330;50.822;7.126;2023-05-03T11:35:47;101956.97;;;24.36;25.21
9141;BME280;46330;50.822;7.126;2023-05-03T11:38:15;101963.56;;;24.93;24.35
9141;BME280;46330;50.822;7.126;2023-05-03T11:40:44;101950.59;;;24.23;24.44
9141;BME280;46330;50.822;7.126;2023-05-03T11:43:12;101954.59;;;24.47;27.03
9141;BME280;46330;50.822;7.126;2023-05-03T11:45:41;101949.00;;;24.03;25.01
9141;BME280;46330;50.822;7.126;2023-05-03T11:48:12;101953.00;;;22.56;26.49
9141;BME280;46330;50.822;7.126;2023-05-03T11:50:44;101951.13;;;23.96;25.79
9141;BME280;46330;50.822;7.126;2023-05-03T11:53:13;101937.13;;;23.91;24.91
9141;BME280;46330;50.822;7.126;2023-05-03T11:55:44;101934.28;;;24.27;25.92
9141;BME280;46330;50.822;7.126;2023-05-03T11:58:14;101933.03;;;24.81;24.01
9141;BME280;46330;50.822;7.126;2023-05-03T12:00:43;101923.81;;;24.70;24.82
9141;BME280;46330;50.822;7.126;2023-05-03T12:03:16;101932.59;;;25.19;24.28
9141;BME280;46330;50.822;7.126;2023-05-03T12:05:45;101927.25;;;25.33;24.37
9141;BME280;46330;50.822;7.126;2023-05-03T12:08:15;101927.25;;;25.33;24.10
9141;BME280;46330;50.822;7.126;2023-05-03T12:10:49;101924.81;;;24.53;24.83
9141;BME280;46330;50.822;7.126;2023-05-03T12:13:27;101927.81;;;24.16;25.56
9141;BME280;46330;50.822;7.126;2023-05-03T12:15:58;101925.69;;;21.74;26.90
9141;BME280;46330;50.822;7.126;2023-05-03T12:18:45;101920.41;;;24.21;24.96
9141;BME280;46330;50.822;7.126;2023-05-03T12:21:14;101917.91;;;24.33;24.87
9141;BME280;46330;50.822;7.126;2023-05-03T12:23:45;101906.41;;;24.78;25.43
9141;BME280;46330;50.822;7.126;2023-05-03T12:26:18;101913.66;;;22.23;27.43
9141;BME280;46330;50.822;7.126;2023-05-03T12:28:48;101907.88;;;22.32;27.73
9141;BME280;46330;50.822;7.126;2023-05-03T12:31:16;101916.91;;;22.11;26.31
9141;BME280;46330;50.822;7.126;2023-05-03T12:33:44;101904.44;;;23.02;27.79
9141;BME280;46330;50.822;7.126;2023-05-03T12:36:32;101898.47;;;22.61;27.23
9141;BME280;46330;50.822;7.126;2023-05-03T12:39:03;101897.13;;;22.88;25.72
9141;BME280;46330;50.822;7.126;2023-05-03T12:41:36;101896.78;;;23.47;26.27
9141;BME280;46330;50.822;7.126;2023-05-03T12:44:07;101888.56;;;24.16;24.98
9141;BME280;46330;50.822;7.126;2023-05-03T12:46:36;101883.97;;;24.65;24.47
9141;BME280;46330;50.822;7.126;2023-05-03T12:49:05;101887.03;;;23.46;25.63
9141;BME280;46330;50.822;7.126;2023-05-03T12:51:34;101882.56;;;22.60;27.17
9141;BME280;46330;50.822;7.126;2023-05-03T12:54:07;101871.97;;;24.09;26.84
9141;BME280;46330;50.822;7.126;2023-05-03T12:56:38;101867.59;;;24.55;24.56
9141;BME280;46330;50.822;7.126;2023-05-03T12:59:07;101873.78;;;25.01;25.15
9141;BME280;46330;50.822;7.126;2023-05-03T13:01:38;101869.84;;;24.93;24.24
9141;BME280;46330;50.822;7.126;2023-05-03T13:04:08;101864.91;;;25.73;24.87
9141;BME280;46330;50.822;7.126;2023-05-03T13:06:44;101857.72;;;25.01;23.58
9141;BME280;46330;50.822;7.126;2023-05-03T13:09:24;101857.78;;;24.86;23.09
9141;BME280;46330;50.822;7.126;2023-05-03T13:11:54;101847.31;;;24.36;26.54
9141;BME280;46330;50.822;7.126;2023-05-03T13:14:22;101843.38;;;23.79;27.16
9141;BME280;46330;50.822;7.126;2023-05-03T13:16:50;101835.72;;;24.04;24.41
9141;BME280;46330;50.822;7.126;2023-05-03T13:19:18;101819.50;;;24.54;24.17
9141;BME280;46330;50.822;7.126;2023-05-03T13:21:46;101816.25;;;25.08;25.10
9141;BME280;46330;50.822;7.126;2023-05-03T13:24:15;101826.84;;;24.96;25.12